createdAt,value
2023-08-17T00:01:30.156Z,14.68
2023-08-17T00:03:56.953Z,13.90
2023-08-17T00:06:23.640Z,14.80
2023-08-17T00:08:51.716Z,16.50
2023-08-17T00:11:18.394Z,12.45
2023-08-17T00:13:45.246Z,12.32
2023-08-17T00:16:12.020Z,14.50
2023-08-17T00:18:38.706Z,13.77
2023-08-17T00:21:05.831Z,14.13
2023-08-17T00:23:32.577Z,13.43
2023-08-17T00:26:00.909Z,14.85
2023-08-17T00:28:27.617Z,14.98
2023-08-17T00:30:54.346Z,14.48
2023-08-17T00:33:21.108Z,13.55
2023-08-17T00:35:47.879Z,18.33
2023-08-17T00:38:14.789Z,15.98
2023-08-17T00:40:41.541Z,19.23
2023-08-17T00:43:09.679Z,13.43
2023-08-17T00:45:36.714Z,14.65
2023-08-17T00:48:03.904Z,13.63
2023-08-17T00:50:30.621Z,15.68
2023-08-17T00:52:57.554Z,13.82
2023-08-17T00:55:24.279Z,13.00
2023-08-17T00:57:51.059Z,14.00
2023-08-17T01:00:20.080Z,13.95
2023-08-17T01:02:47.102Z,15.65
2023-08-17T01:05:13.859Z,17.70
2023-08-17T01:07:40.610Z,15.27
2023-08-17T01:10:07.721Z,12.27
2023-08-17T01:12:37.385Z,13.10
2023-08-17T01:15:06.819Z,18.38
2023-08-17T01:17:38.058Z,14.75
2023-08-17T01:20:06.050Z,17.77
2023-08-17T01:22:32.827Z,15.50
2023-08-17T01:25:00.912Z,14.75
2023-08-17T01:27:33.917Z,14.65
2023-08-17T01:30:00.589Z,13.10
2023-08-17T01:32:29.956Z,16.15
2023-08-17T01:34:58.897Z,14.10
2023-08-17T01:37:26.732Z,14.07
2023-08-17T01:39:53.956Z,13.82
2023-08-17T01:42:22.633Z,13.45
2023-08-17T01:44:49.327Z,15.85
2023-08-17T01:47:16.325Z,19.13
2023-08-17T01:49:43.053Z,13.90
2023-08-17T01:52:09.750Z,16.50
2023-08-17T01:54:36.823Z,16.63
2023-08-17T01:57:03.985Z,17.67
2023-08-17T01:59:32.060Z,19.83
2023-08-17T02:01:58.798Z,18.15
2023-08-17T02:04:25.638Z,15.43
2023-08-17T02:06:52.428Z,17.13
2023-08-17T02:09:19.096Z,16.27
2023-08-17T02:11:45.814Z,17.58
2023-08-17T02:14:12.516Z,13.45
2023-08-17T02:16:40.679Z,13.23
2023-08-17T02:19:07.511Z,14.88
2023-08-17T02:21:34.363Z,13.75
2023-08-17T02:24:01.048Z,18.25
2023-08-17T02:26:27.828Z,15.27
2023-08-17T02:28:54.471Z,19.17
2023-08-17T02:31:21.187Z,17.60
2023-08-17T02:33:50.376Z,11.52
2023-08-17T02:36:17.474Z,11.82
2023-08-17T02:38:44.210Z,13.60
2023-08-17T02:41:11.074Z,13.60
2023-08-17T02:43:37.818Z,10.82
2023-08-17T02:46:04.566Z,12.13
2023-08-17T02:48:32.965Z,10.98
2023-08-17T02:51:01.448Z,13.43
2023-08-17T02:53:28.111Z,13.15
2023-08-17T02:55:54.831Z,13.40
2023-08-17T02:58:21.517Z,12.73
2023-08-17T03:00:48.201Z,13.73
2023-08-17T03:03:15.112Z,15.07
2023-08-17T03:05:41.838Z,13.27
2023-08-17T03:08:09.940Z,15.63
2023-08-17T03:10:37.873Z,12.50
2023-08-17T03:13:04.789Z,15.57
2023-08-17T03:15:31.562Z,12.25
2023-08-17T03:17:58.397Z,16.10
2023-08-17T03:20:25.088Z,12.63
2023-08-17T03:22:51.804Z,12.07
2023-08-17T03:25:20.053Z,11.30
2023-08-17T03:27:47.301Z,13.60
2023-08-17T03:30:14.020Z,12.10
2023-08-17T03:32:40.868Z,11.70
2023-08-17T03:35:08.580Z,10.38
2023-08-17T03:37:35.284Z,11.45
2023-08-17T03:40:01.947Z,13.80
2023-08-17T03:42:30.032Z,12.55
2023-08-17T03:44:57.107Z,13.68
2023-08-17T03:47:24.049Z,15.50
2023-08-17T03:49:50.882Z,17.17
2023-08-17T03:52:18.154Z,12.73
2023-08-17T03:54:44.899Z,17.75
2023-08-17T03:57:11.527Z,12.00
2023-08-17T03:59:39.801Z,12.07
2023-08-17T04:02:06.568Z,13.02
2023-08-17T04:04:33.377Z,12.85
2023-08-17T04:07:00.168Z,15.68
2023-08-17T04:09:27.050Z,13.18
2023-08-17T04:11:53.787Z,12.57
2023-08-17T04:14:20.516Z,13.27
2023-08-17T04:16:48.650Z,14.65
2023-08-17T04:19:15.450Z,13.40
2023-08-17T04:21:42.193Z,10.90
2023-08-17T04:24:09.016Z,13.20
2023-08-17T04:26:35.755Z,14.30
2023-08-17T04:29:02.442Z,16.08
2023-08-17T04:31:29.270Z,13.13
2023-08-17T04:33:57.632Z,11.35
2023-08-17T04:36:24.289Z,13.90
2023-08-17T04:38:50.957Z,13.88
2023-08-17T04:41:17.998Z,11.10
2023-08-17T04:43:44.682Z,13.23
2023-08-17T04:46:11.436Z,11.73
2023-08-17T04:48:38.751Z,12.23
2023-08-17T04:51:06.779Z,12.73
2023-08-17T04:53:33.632Z,16.73
2023-08-17T04:56:00.364Z,13.50
2023-08-17T04:58:27.084Z,10.75
2023-08-17T05:00:53.877Z,10.05
2023-08-17T05:03:32.913Z,12.95
2023-08-17T05:06:00.636Z,9.88
2023-08-17T05:08:28.818Z,9.63
2023-08-17T05:10:55.606Z,10.13
2023-08-17T05:13:22.390Z,10.88
2023-08-17T05:15:49.320Z,11.63
2023-08-17T05:18:16.015Z,12.13
2023-08-17T05:20:42.703Z,10.43
2023-08-17T05:23:09.391Z,11.32
2023-08-17T05:25:37.470Z,12.98
2023-08-17T05:28:05.381Z,11.15
2023-08-17T05:30:32.065Z,9.10
2023-08-17T05:32:58.916Z,14.13
2023-08-17T05:35:25.806Z,9.43
2023-08-17T05:37:52.466Z,11.55
2023-08-17T05:40:19.364Z,12.68
2023-08-17T05:42:47.511Z,9.70
2023-08-17T05:45:14.265Z,12.27
2023-08-17T05:47:40.953Z,12.70
2023-08-17T05:50:08.764Z,10.05
2023-08-17T05:52:35.476Z,10.75
2023-08-17T05:55:02.239Z,11.60
2023-08-17T05:57:29.225Z,11.90
2023-08-17T05:59:57.409Z,12.57
2023-08-17T06:02:24.159Z,17.95
2023-08-17T06:04:50.868Z,12.90
2023-08-17T06:07:17.528Z,13.68
2023-08-17T06:09:44.285Z,8.52
2023-08-17T06:12:10.969Z,15.05
2023-08-17T06:14:37.695Z,9.73
2023-08-17T06:17:05.949Z,11.68
2023-08-17T06:19:32.824Z,13.65
2023-08-17T06:22:00.633Z,9.23
2023-08-17T06:24:27.368Z,10.63
2023-08-17T06:26:54.121Z,10.48
2023-08-17T06:29:20.827Z,9.75
2023-08-17T06:31:47.501Z,10.75
2023-08-17T06:34:15.774Z,9.80
2023-08-17T06:36:42.472Z,12.13
2023-08-17T06:39:09.535Z,9.35
2023-08-17T06:41:36.249Z,15.23
2023-08-17T06:44:03.020Z,8.25
2023-08-17T06:46:29.906Z,14.23
2023-08-17T06:48:56.620Z,15.73
2023-08-17T06:51:24.716Z,10.70
2023-08-17T06:53:51.434Z,9.88
2023-08-17T06:56:18.154Z,9.30
2023-08-17T06:58:44.856Z,10.90
2023-08-17T07:01:12.038Z,9.35
2023-08-17T07:03:39.596Z,10.85
2023-08-17T07:06:06.345Z,12.23
2023-08-17T07:08:34.426Z,12.68
2023-08-17T07:11:01.189Z,10.15
2023-08-17T07:13:27.927Z,11.98
2023-08-17T07:15:54.792Z,8.82
2023-08-17T07:18:24.552Z,13.13
2023-08-17T07:20:51.296Z,11.07
2023-08-17T07:23:18.163Z,10.93
2023-08-17T07:25:46.472Z,12.35
2023-08-17T07:28:13.228Z,11.82
2023-08-17T07:30:40.011Z,9.25
2023-08-17T07:33:06.758Z,10.07
2023-08-17T07:35:33.569Z,9.05
2023-08-17T07:38:09.067Z,8.25
2023-08-17T07:40:36.841Z,9.35
2023-08-17T07:43:05.094Z,7.03
2023-08-17T07:45:31.876Z,9.45
2023-08-17T07:47:58.616Z,8.07
2023-08-17T07:50:25.384Z,6.53
2023-08-17T07:52:52.109Z,10.57
2023-08-17T07:55:19.919Z,10.23
2023-08-17T07:57:46.633Z,12.75
2023-08-17T08:00:16.089Z,7.22
2023-08-17T08:02:42.860Z,9.25
2023-08-17T08:05:10.162Z,8.82
2023-08-17T08:07:36.951Z,8.30
2023-08-17T08:10:03.906Z,15.60
2023-08-17T08:12:30.660Z,6.63
2023-08-17T08:14:57.398Z,11.20
2023-08-17T08:17:25.758Z,13.48
2023-08-17T08:19:52.748Z,6.88
2023-08-17T08:22:19.699Z,8.75
2023-08-17T08:24:46.448Z,8.73
2023-08-17T08:27:13.160Z,9.32
2023-08-17T08:29:40.601Z,10.15
2023-08-17T08:32:07.319Z,7.53
2023-08-17T08:34:35.419Z,7.00
2023-08-17T08:37:02.090Z,7.45
2023-08-17T08:39:28.870Z,10.20
2023-08-17T08:41:55.705Z,7.30
2023-08-17T08:44:22.451Z,8.50
2023-08-17T08:46:50.010Z,8.00
2023-08-17T08:49:19.806Z,7.45
2023-08-17T08:51:50.773Z,7.15
2023-08-17T08:54:21.213Z,9.30
2023-08-17T08:56:48.415Z,8.90
2023-08-17T08:59:15.435Z,5.60
2023-08-17T09:01:42.267Z,7.22
2023-08-17T09:04:09.055Z,3.33
2023-08-17T09:06:35.780Z,4.35
2023-08-17T09:09:04.048Z,4.18
2023-08-17T09:11:30.855Z,4.15
2023-08-17T09:13:57.567Z,5.15
2023-08-17T09:16:25.837Z,5.70
2023-08-17T09:18:53.683Z,4.10
2023-08-17T09:21:23.584Z,9.00
2023-08-17T09:23:58.919Z,3.67
2023-08-17T09:26:31.696Z,5.40
2023-08-17T09:28:58.529Z,4.97
2023-08-17T09:31:25.686Z,4.60
2023-08-17T09:33:52.603Z,5.88
2023-08-17T09:36:21.674Z,4.00
2023-08-17T09:38:48.955Z,5.72
2023-08-17T09:41:15.751Z,3.42
2023-08-17T09:43:43.946Z,5.88
2023-08-17T09:46:11.072Z,19.63
2023-08-17T09:48:37.948Z,4.32
2023-08-17T09:51:04.725Z,5.63
2023-08-17T09:53:35.840Z,9.85
2023-08-17T09:56:02.629Z,2.97
2023-08-17T09:58:32.031Z,8.57
2023-08-17T10:01:01.241Z,2.40
2023-08-17T10:03:28.029Z,3.88
2023-08-17T10:05:56.969Z,5.10
2023-08-17T10:08:23.703Z,4.43
2023-08-17T10:10:56.424Z,3.08
2023-08-17T10:13:27.501Z,3.00
2023-08-17T10:15:58.410Z,2.90
2023-08-17T10:18:30.360Z,3.42
2023-08-17T10:21:02.746Z,4.72
2023-08-17T10:23:29.476Z,3.63
2023-08-17T10:29:28.104Z,3.05
2023-08-17T10:31:54.897Z,2.88
2023-08-17T10:34:23.329Z,4.75
2023-08-17T10:36:50.038Z,4.93
2023-08-17T10:39:21.303Z,4.30
2023-08-17T10:41:48.052Z,2.92
2023-08-17T10:44:14.800Z,3.80
2023-08-17T10:46:41.789Z,2.90
2023-08-17T10:49:24.612Z,3.80
2023-08-17T10:52:03.394Z,6.35
2023-08-17T10:54:37.645Z,3.95
2023-08-17T10:59:45.866Z,3.33
2023-08-17T11:02:12.592Z,6.03
2023-08-17T11:04:39.371Z,3.58
2023-08-17T11:07:07.509Z,5.28
2023-08-17T11:09:36.434Z,5.10
2023-08-17T11:12:03.182Z,4.43
2023-08-17T11:14:34.317Z,5.72
2023-08-17T11:17:06.285Z,2.10
2023-08-17T11:19:33.501Z,4.35
2023-08-17T11:22:00.173Z,4.53
2023-08-17T11:24:29.482Z,5.13
2023-08-17T11:26:56.866Z,3.67
2023-08-17T11:29:23.518Z,4.30
2023-08-17T11:31:52.209Z,4.25
2023-08-17T11:34:18.892Z,4.97
2023-08-17T11:36:45.578Z,4.18
2023-08-17T11:39:12.562Z,4.22
2023-08-17T11:41:40.632Z,4.43
2023-08-17T11:44:07.342Z,3.67
2023-08-17T11:46:34.060Z,21.48
2023-08-17T11:49:00.796Z,6.63
2023-08-17T11:51:30.490Z,5.72
2023-08-17T11:54:00.528Z,6.22
2023-08-17T11:56:27.268Z,7.95
2023-08-17T11:58:55.321Z,4.88
2023-08-17T12:01:22.342Z,3.72
2023-08-17T12:03:49.565Z,3.88
2023-08-17T12:06:16.970Z,4.60
2023-08-17T12:08:46.712Z,11.05
2023-08-17T12:11:13.998Z,4.38
2023-08-17T12:13:40.801Z,4.65
2023-08-17T12:16:15.764Z,4.70
2023-08-17T12:18:45.228Z,5.88
2023-08-17T12:21:12.424Z,24.00
2023-08-17T12:23:39.247Z,5.65
2023-08-17T12:26:06.011Z,6.80
2023-08-17T12:28:33.539Z,4.07
2023-08-17T12:31:00.595Z,5.10
2023-08-17T12:33:28.889Z,4.10
2023-08-17T12:35:55.701Z,5.00
2023-08-17T12:38:24.356Z,8.82
2023-08-17T12:40:51.075Z,4.13
2023-08-17T12:43:17.804Z,4.07
2023-08-17T12:45:44.611Z,4.47
2023-08-17T12:48:11.728Z,3.08
2023-08-17T12:53:09.523Z,3.72
2023-08-17T12:55:36.228Z,5.43
2023-08-17T12:58:03.226Z,3.95
2023-08-17T13:00:30.112Z,3.90
2023-08-17T13:02:56.924Z,7.85
2023-08-17T13:05:23.605Z,3.83
2023-08-17T13:07:51.803Z,4.38
2023-08-17T13:10:18.577Z,4.10
2023-08-17T13:12:45.289Z,3.95
2023-08-17T13:15:12.742Z,4.15
2023-08-17T13:17:39.594Z,4.68
2023-08-17T13:20:07.534Z,6.53
2023-08-17T13:22:34.299Z,5.32
2023-08-17T13:25:02.921Z,6.13
2023-08-17T13:27:29.650Z,7.72
2023-08-17T13:29:56.370Z,5.93
2023-08-17T13:32:23.360Z,3.80
2023-08-17T13:34:50.146Z,6.35
2023-08-17T13:37:16.898Z,5.32
2023-08-17T13:39:43.936Z,5.80
2023-08-17T13:42:12.268Z,7.28
2023-08-17T13:44:39.255Z,5.32
2023-08-17T13:47:05.940Z,5.70
2023-08-17T13:49:33.047Z,4.18
2023-08-17T13:51:59.749Z,7.93
2023-08-17T13:54:26.524Z,4.57
2023-08-17T13:56:54.009Z,4.45
2023-08-17T13:59:22.343Z,5.57
2023-08-17T14:01:49.067Z,8.57
2023-08-17T14:04:15.789Z,4.65
2023-08-17T14:06:43.542Z,5.45
2023-08-17T14:09:10.284Z,4.30
2023-08-17T14:11:36.983Z,5.20
2023-08-17T14:14:03.815Z,10.48
2023-08-17T14:16:33.226Z,6.45
2023-08-17T14:19:00.092Z,6.35
2023-08-17T14:21:26.866Z,6.35
2023-08-17T14:23:53.826Z,5.07
2023-08-17T14:26:20.591Z,6.78
2023-08-17T14:28:47.368Z,6.32
2023-08-17T14:31:14.102Z,7.70
2023-08-17T14:33:42.231Z,5.97
2023-08-17T14:36:08.981Z,5.10
2023-08-17T14:38:35.743Z,5.47
2023-08-17T14:41:03.707Z,8.98
2023-08-17T14:43:30.636Z,6.63
2023-08-17T14:45:57.330Z,5.90
2023-08-17T14:48:24.183Z,7.63
2023-08-17T14:50:52.356Z,6.95
2023-08-17T14:53:19.065Z,8.13
2023-08-17T14:55:50.181Z,6.88
2023-08-17T14:58:17.112Z,7.63
2023-08-17T15:00:44.148Z,10.88
2023-08-17T15:03:10.966Z,6.88
2023-08-17T15:05:37.745Z,9.52
2023-08-17T15:08:06.382Z,7.65
2023-08-17T15:10:33.892Z,6.00
2023-08-17T15:13:00.813Z,8.52
2023-08-17T15:15:27.715Z,9.93
2023-08-17T15:17:54.471Z,9.65
2023-08-17T15:20:21.265Z,8.05
2023-08-17T15:22:48.018Z,9.77
2023-08-17T15:25:16.345Z,6.78
2023-08-17T15:27:43.864Z,11.63
2023-08-17T15:30:11.108Z,8.25
2023-08-17T15:32:37.934Z,8.32
2023-08-17T15:35:05.436Z,6.93
2023-08-17T15:37:32.133Z,8.25
2023-08-17T15:39:58.995Z,5.50
2023-08-17T15:42:27.437Z,8.35
2023-08-17T15:44:54.840Z,7.82
2023-08-17T15:47:21.520Z,6.07
2023-08-17T15:49:48.272Z,7.07
2023-08-17T15:52:15.241Z,6.65
2023-08-17T15:54:42.001Z,4.97
2023-08-17T15:57:09.710Z,7.15
2023-08-17T15:59:37.754Z,6.32
2023-08-17T16:02:04.700Z,7.82
2023-08-17T16:04:31.493Z,7.88
2023-08-17T16:06:58.218Z,7.03
2023-08-17T16:09:30.557Z,8.63
2023-08-17T16:11:57.931Z,5.68
2023-08-17T16:14:24.808Z,6.32
2023-08-17T16:16:56.644Z,5.43
2023-08-17T16:19:24.681Z,8.48
2023-08-17T16:21:51.431Z,6.00
2023-08-17T16:24:18.150Z,8.15
2023-08-17T16:26:44.835Z,5.47
2023-08-17T16:29:11.578Z,5.30
2023-08-17T16:31:38.311Z,5.22
2023-08-17T16:34:06.620Z,6.95
2023-08-17T16:36:36.791Z,6.93
2023-08-17T16:39:04.904Z,6.38
2023-08-17T16:41:31.633Z,5.78
2023-08-17T16:43:58.333Z,7.80
2023-08-17T16:46:25.130Z,7.80
2023-08-17T16:48:51.828Z,8.02
2023-08-17T16:51:19.938Z,5.75
2023-08-17T16:53:46.696Z,7.22
2023-08-17T16:56:13.437Z,6.78
2023-08-17T16:58:40.280Z,8.80
2023-08-17T17:01:14.410Z,6.20
2023-08-17T17:06:09.229Z,7.13
2023-08-17T17:08:37.375Z,7.63
2023-08-17T17:11:04.961Z,6.05
2023-08-17T17:13:31.850Z,9.05
2023-08-17T17:15:58.586Z,6.90
2023-08-17T17:18:25.709Z,8.68
2023-08-17T17:20:52.446Z,6.05
2023-08-17T17:23:19.159Z,6.97
2023-08-17T17:25:47.349Z,8.93
2023-08-17T17:28:14.066Z,6.90
2023-08-17T17:30:41.030Z,7.45
2023-08-17T17:33:07.844Z,6.68
2023-08-17T17:35:35.230Z,7.05
2023-08-17T17:38:02.282Z,10.73
2023-08-17T17:40:29.312Z,8.38
2023-08-17T17:42:58.702Z,9.02
2023-08-17T17:45:26.044Z,6.57
2023-08-17T17:47:52.824Z,9.25
2023-08-17T17:50:19.536Z,12.57
2023-08-17T17:52:48.581Z,10.73
2023-08-17T17:55:15.915Z,9.32
2023-08-17T17:57:42.726Z,7.43
2023-08-17T18:00:12.285Z,9.50
2023-08-17T18:02:39.133Z,6.15
2023-08-17T18:05:10.283Z,6.82
2023-08-17T18:07:36.997Z,7.00
2023-08-17T18:10:04.395Z,7.93
2023-08-17T18:12:31.148Z,6.75
2023-08-17T18:14:57.900Z,7.20
2023-08-17T18:17:26.222Z,6.65
2023-08-17T18:19:53.181Z,9.35
2023-08-17T18:22:20.925Z,8.80
2023-08-17T18:24:47.712Z,9.05
2023-08-17T18:27:14.422Z,10.10
2023-08-17T18:29:41.230Z,12.15
2023-08-17T18:32:08.069Z,9.23
2023-08-17T18:34:36.208Z,8.57
2023-08-17T18:37:02.895Z,9.50
2023-08-17T18:39:29.645Z,7.13
2023-08-17T18:41:56.323Z,8.75
2023-08-17T18:44:23.143Z,8.23
2023-08-17T18:46:49.864Z,9.27
2023-08-17T18:49:16.599Z,7.38
2023-08-17T18:51:44.661Z,9.60
2023-08-17T18:54:11.433Z,9.30
2023-08-17T18:56:38.165Z,12.18
2023-08-17T18:59:05.308Z,10.18
2023-08-17T19:01:32.150Z,14.60
2023-08-17T19:03:59.121Z,10.27
2023-08-17T19:06:26.277Z,11.13
2023-08-17T19:08:54.399Z,9.05
2023-08-17T19:11:21.266Z,13.02
2023-08-17T19:13:48.068Z,12.65
2023-08-17T19:16:14.887Z,10.15
2023-08-17T19:18:41.736Z,12.43
2023-08-17T19:21:08.471Z,14.13
2023-08-17T19:23:35.605Z,9.68
2023-08-17T19:26:03.810Z,11.82
2023-08-17T19:28:30.529Z,12.20
2023-08-17T19:30:57.477Z,13.70
2023-08-17T19:33:24.326Z,12.48
2023-08-17T19:35:51.481Z,11.90
2023-08-17T19:38:18.788Z,10.50
2023-08-17T19:40:46.046Z,9.55
2023-08-17T19:43:14.146Z,13.20
2023-08-17T19:45:41.096Z,14.30
2023-08-17T19:48:08.189Z,11.40
2023-08-17T19:50:34.925Z,10.55
2023-08-17T19:53:01.750Z,9.52
2023-08-17T19:55:28.461Z,16.45
2023-08-17T19:57:55.147Z,11.07
2023-08-17T20:00:23.474Z,11.20
2023-08-17T20:02:50.209Z,11.40
2023-08-17T20:05:17.959Z,14.50
2023-08-17T20:07:44.705Z,13.82
2023-08-17T20:10:12.178Z,11.35
2023-08-17T20:12:38.906Z,11.18
2023-08-17T20:15:08.004Z,13.10
2023-08-17T20:17:36.866Z,13.82
2023-08-17T20:20:04.382Z,13.80
2023-08-17T20:22:31.107Z,11.60
2023-08-17T20:24:58.795Z,17.73
2023-08-17T20:27:25.642Z,13.75
2023-08-17T20:29:52.557Z,11.02
2023-08-17T20:32:19.268Z,14.43
2023-08-17T20:34:47.525Z,11.85
2023-08-17T20:37:14.302Z,12.30
2023-08-17T20:39:41.012Z,12.68
2023-08-17T20:42:08.566Z,11.80
2023-08-17T20:44:35.381Z,14.07
2023-08-17T20:47:02.102Z,16.27
2023-08-17T20:49:28.805Z,11.90
2023-08-17T20:51:57.412Z,18.75
2023-08-17T20:54:24.101Z,12.13
2023-08-17T20:56:50.799Z,15.15
2023-08-17T20:59:17.854Z,13.48
2023-08-17T21:01:45.284Z,11.65
2023-08-17T21:04:14.892Z,13.90
2023-08-17T21:06:41.563Z,11.82
2023-08-17T21:09:09.721Z,12.65
2023-08-17T21:11:37.840Z,13.85
2023-08-17T21:14:04.895Z,13.18
2023-08-17T21:16:31.573Z,11.90
2023-08-17T21:18:59.240Z,13.07
2023-08-17T21:21:27.504Z,15.05
2023-08-17T21:23:54.280Z,12.88
2023-08-17T21:26:22.395Z,14.27
2023-08-17T21:28:49.156Z,11.88
2023-08-17T21:31:16.520Z,14.27
2023-08-17T21:33:43.401Z,15.73
2023-08-17T21:36:10.169Z,13.50
2023-08-17T21:38:37.536Z,12.60
2023-08-17T21:41:04.282Z,13.90
2023-08-17T21:43:32.425Z,11.45
2023-08-17T21:45:59.846Z,11.27
2023-08-17T21:48:26.647Z,11.05
2023-08-17T21:50:53.563Z,13.00
2023-08-17T21:53:20.465Z,11.75
2023-08-17T21:55:48.124Z,12.52
2023-08-17T21:58:14.923Z,12.57
2023-08-17T22:00:43.012Z,18.13
2023-08-17T22:03:09.875Z,14.50
2023-08-17T22:05:36.765Z,13.00
2023-08-17T22:08:03.809Z,12.70
2023-08-17T22:10:30.586Z,12.93
2023-08-17T22:12:57.637Z,11.35
2023-08-17T22:15:24.449Z,14.60
2023-08-17T22:17:52.581Z,13.95
2023-08-17T22:20:19.443Z,12.18
2023-08-17T22:22:46.135Z,13.23
2023-08-17T22:25:13.102Z,12.50
2023-08-17T22:27:39.827Z,11.00
2023-08-17T22:30:07.782Z,14.13
2023-08-17T22:32:34.549Z,17.52
2023-08-17T22:35:02.794Z,15.60
2023-08-17T22:37:29.640Z,13.40
2023-08-17T22:39:56.611Z,15.82
2023-08-17T22:42:23.491Z,17.00
2023-08-17T22:44:50.265Z,13.52
2023-08-17T22:47:16.944Z,12.75
2023-08-17T22:49:43.743Z,12.45
2023-08-17T22:52:11.915Z,14.27
2023-08-17T22:54:38.728Z,18.10
2023-08-17T22:57:05.720Z,12.95
2023-08-17T22:59:32.423Z,10.95
2023-08-17T23:01:59.147Z,12.80
2023-08-17T23:04:28.739Z,13.65
2023-08-17T23:06:55.913Z,13.15
2023-08-17T23:09:23.972Z,12.13
2023-08-17T23:11:50.687Z,13.35
2023-08-17T23:14:17.339Z,13.18
2023-08-17T23:16:44.103Z,12.25
2023-08-17T23:19:10.854Z,13.15
2023-08-17T23:21:37.595Z,11.57
2023-08-17T23:24:05.031Z,11.60
2023-08-17T23:26:33.169Z,11.25
2023-08-17T23:28:59.937Z,12.07
2023-08-17T23:31:26.758Z,13.65
2023-08-17T23:33:53.527Z,10.98
2023-08-17T23:36:20.229Z,16.58
2023-08-17T23:38:46.992Z,10.60
2023-08-17T23:41:13.817Z,14.02
2023-08-17T23:43:41.904Z,12.73
2023-08-17T23:46:09.022Z,11.65
2023-08-17T23:48:35.770Z,12.23
2023-08-17T23:51:02.487Z,14.13
2023-08-17T23:53:29.361Z,12.40
2023-08-17T23:55:56.053Z,14.40
2023-08-17T23:58:22.797Z,11.40
